Time;durP1;ratioP1;P1;durP2;ratioP2;P2;SDS_P1;SDS_P2;PMS_P1;PMS_P2;Temp;Humidity;BMP_temperature;BMP_pressure;BME280_temperature;BME280_humidity;BME280_pressure;Samples;Min_cycle;Max_cycle;Signal;HPM_P1;HPM_P2
2023/04/20 00:00:20;;;;;;;46.30;32.03;;;8.20;99.90;;;;;;5010339;28;20046;-75
2023/04/20 00:02:49;;;;;;;49.95;31.17;;;8.20;99.90;;;;;;5012517;28;20109;-75
2023/04/20 00:05:16;;;;;;;53.05;35.28;;;8.20;99.90;;;;;;5012271;28;20050;-75
2023/04/20 00:07:45;;;;;;;56.33;35.42;;;8.20;99.90;;;;;;5011579;28;20042;-75
2023/04/20 00:10:12;;;;;;;59.70;35.22;;;8.20;99.90;;;;;;5008947;28;20046;-74
2023/04/20 00:12:41;;;;;;;49.38;33.20;;;8.20;99.90;;;;;;5011613;28;20509;-75
2023/04/20 00:15:09;;;;;;;55.08;36.00;;;8.10;99.90;;;;;;5011383;28;20052;-76
2023/04/20 00:17:38;;;;;;;50.00;35.30;;;8.10;99.90;;;;;;5030757;28;20052;-74
2023/04/20 00:20:08;;;;;;;53.60;32.95;;;8.10;99.90;;;;;;5013836;28;20045;-75
2023/04/20 00:22:36;;;;;;;56.38;35.25;;;8.10;99.90;;;;;;5031258;28;20369;-75
2023/04/20 00:25:05;;;;;;;55.72;33.60;;;8.20;99.90;;;;;;5029988;28;20045;-75
2023/04/20 00:27:33;;;;;;;51.00;32.03;;;8.10;99.90;;;;;;5030451;28;20466;-74
2023/04/20 00:30:00;;;;;;;52.30;31.25;;;8.10;99.90;;;;;;5029894;28;20037;-75
2023/04/20 00:32:29;;;;;;;44.60;28.55;;;8.20;99.90;;;;;;5029877;28;20485;-75
2023/04/20 00:34:57;;;;;;;48.75;29.75;;;8.20;99.90;;;;;;5030659;28;20048;-76
2023/04/20 00:37:24;;;;;;;55.22;32.22;;;8.10;99.90;;;;;;5030503;28;20045;-75
2023/04/20 00:39:57;;;;;;;59.45;34.00;;;8.10;99.90;;;;;;5012930;28;20041;-74
2023/04/20 00:42:26;;;;;;;62.45;31.73;;;8.10;99.90;;;;;;5012085;28;20038;-74
2023/04/20 00:44:54;;;;;;;68.07;38.08;;;8.10;99.90;;;;;;5030681;28;20041;-75
2023/04/20 00:47:22;;;;;;;61.17;33.58;;;8.00;99.90;;;;;;5011972;28;20042;-74
2023/04/20 00:49:50;;;;;;;59.13;34.92;;;7.90;99.90;;;;;;5044847;28;20124;-75
2023/04/20 00:52:17;;;;;;;71.30;39.05;;;7.80;99.90;;;;;;5055081;28;20051;-76
2023/04/20 00:54:45;;;;;;;64.72;35.22;;;7.70;99.90;;;;;;5021483;28;20160;-74
2023/04/20 00:57:14;;;;;;;62.33;36.55;;;7.60;99.90;;;;;;5033983;28;20382;-75
2023/04/20 00:59:43;;;;;;;56.15;32.30;;;7.50;99.90;;;;;;5031076;28;20367;-75
2023/04/20 01:02:10;;;;;;;53.50;32.67;;;7.60;99.90;;;;;;5013609;28;20503;-76
2023/04/20 01:04:38;;;;;;;54.15;31.60;;;7.50;99.90;;;;;;5012905;28;20050;-74
2023/04/20 01:07:06;;;;;;;55.85;31.23;;;7.50;99.90;;;;;;5013285;28;20068;-75
2023/04/20 01:09:33;;;;;;;50.47;30.05;;;7.40;99.90;;;;;;5030202;28;20487;-76
2023/04/20 01:12:01;;;;;;;53.35;29.42;;;7.40;99.90;;;;;;5029860;28;20060;-75
2023/04/20 01:14:28;;;;;;;42.08;27.30;;;7.40;99.90;;;;;;5029193;28;20087;-74
2023/04/20 01:16:58;;;;;;;56.55;34.13;;;7.30;99.90;;;;;;5025366;28;20153;-74
2023/04/20 01:19:26;;;;;;;60.17;32.63;;;7.10;99.90;;;;;;5013861;28;20609;-75
2023/04/20 01:21:54;;;;;;;55.55;32.60;;;7.10;99.90;;;;;;5018434;28;20042;-75
2023/04/20 01:24:23;;;;;;;51.20;29.92;;;7.10;99.90;;;;;;5012464;28;20069;-75
2023/04/20 01:26:52;;;;;;;46.60;27.92;;;7.10;99.90;;;;;;5011214;28;20449;-75
2023/04/20 01:29:19;;;;;;;47.03;27.05;;;7.20;99.90;;;;;;5009453;28;20033;-75
2023/04/20 01:31:47;;;;;;;51.38;29.40;;;7.20;99.90;;;;;;5012037;28;20050;-75
2023/04/20 01:34:16;;;;;;;54.63;30.73;;;7.20;99.90;;;;;;5011846;28;20080;-75
2023/04/20 01:36:44;;;;;;;54.22;30.42;;;7.20;99.90;;;;;;5012454;28;20046;-75
2023/04/20 01:39:11;;;;;;;57.53;31.80;;;7.20;99.90;;;;;;5009191;28;20445;-75
2023/04/20 01:41:40;;;;;;;57.80;31.95;;;7.10;99.90;;;;;;5012227;28;20049;-74
2023/04/20 01:44:09;;;;;;;59.97;33.83;;;7.10;99.90;;;;;;5012100;28;20517;-74
2023/04/20 01:46:39;;;;;;;57.53;34.40;;;7.10;99.90;;;;;;5009308;28;20046;-74
2023/04/20 01:49:08;;;;;;;67.22;35.55;;;7.00;99.90;;;;;;5024919;28;20413;-74
2023/04/20 01:51:37;;;;;;;87.63;47.00;;;7.00;99.90;;;;;;5009109;28;20041;-75
2023/04/20 01:54:05;;;;;;;74.70;43.75;;;7.10;99.90;;;;;;5007400;28;20514;-74
2023/04/20 01:56:32;;;;;;;65.95;37.17;;;7.10;99.90;;;;;;5009493;28;20124;-75
2023/04/20 01:59:01;;;;;;;73.90;37.78;;;7.20;99.90;;;;;;5008327;28;20042;-75
2023/04/20 02:01:29;;;;;;;71.82;35.95;;;7.20;99.90;;;;;;5009385;28;20042;-74
2023/04/20 02:03:56;;;;;;;69.65;33.28;;;7.30;99.90;;;;;;5007780;28;20130;-74
2023/04/20 02:06:23;;;;;;;61.90;31.83;;;7.20;99.90;;;;;;5007918;28;20061;-74
2023/04/20 02:08:51;;;;;;;63.05;33.30;;;7.20;99.90;;;;;;5008344;28;20097;-76
2023/04/20 02:11:18;;;;;;;64.38;34.03;;;7.10;99.90;;;;;;5008399;28;20041;-77
2023/04/20 02:13:46;;;;;;;62.08;34.08;;;7.10;99.90;;;;;;5010171;28;20084;-74
2023/04/20 02:16:15;;;;;;;54.92;33.30;;;7.10;99.90;;;;;;5007103;28;20520;-75
2023/04/20 02:18:44;;;;;;;57.85;31.25;;;7.00;99.90;;;;;;5009319;28;20049;-73
2023/04/20 02:21:12;;;;;;;54.78;31.63;;;6.90;99.90;;;;;;5006904;28;20054;-74
2023/04/20 02:23:39;;;;;;;53.42;30.30;;;7.00;99.90;;;;;;5008630;28;20100;-77
2023/04/20 02:26:07;;;;;;;52.20;31.17;;;6.90;99.90;;;;;;5008092;28;20053;-75
2023/04/20 02:28:34;;;;;;;58.40;31.50;;;6.70;99.90;;;;;;5009449;28;20048;-76
2023/04/20 02:31:05;;;;;;;53.58;29.85;;;6.70;99.90;;;;;;5014419;28;20435;-74
2023/04/20 02:33:34;;;;;;;59.22;25.85;;;6.70;99.90;;;;;;5007396;28;20046;-75
2023/04/20 02:36:02;;;;;;;56.63;28.38;;;6.70;99.90;;;;;;5008014;28;20049;-75
2023/04/20 02:38:30;;;;;;;62.15;27.65;;;6.70;99.90;;;;;;5006815;28;20038;-74
2023/04/20 02:40:57;;;;;;;56.60;30.13;;;6.60;99.90;;;;;;5007523;28;20080;-74
2023/04/20 02:43:25;;;;;;;44.58;28.48;;;6.60;99.90;;;;;;5008195;28;20695;-75
2023/04/20 02:45:53;;;;;;;81.28;33.90;;;6.60;99.90;;;;;;5006846;28;20121;-74
2023/04/20 02:48:22;;;;;;;67.00;32.50;;;6.60;99.90;;;;;;5006022;28;20077;-75
2023/04/20 02:50:54;;;;;;;58.17;29.65;;;6.50;99.90;;;;;;5007876;28;20065;-74
2023/04/20 02:53:23;;;;;;;50.25;28.55;;;6.60;99.90;;;;;;5014655;28;20076;-75
2023/04/20 02:56:14;;;;;;;47.38;28.70;;;6.50;99.90;;;;;;5008212;28;20518;-74
2023/04/20 02:58:47;;;;;;;47.85;29.92;;;6.60;99.90;;;;;;5025784;28;20132;-74
2023/04/20 03:01:37;;;;;;;57.13;33.00;;;6.50;99.90;;;;;;5013330;28;20045;-75
2023/04/20 03:04:11;;;;;;;71.03;35.28;;;6.50;99.90;;;;;;5026773;28;20584;-75
2023/04/20 03:06:47;;;;;;;66.82;40.28;;;6.50;99.90;;;;;;5025816;28;20640;-76
2023/04/20 03:09:20;;;;;;;74.28;37.33;;;6.40;99.90;;;;;;5027256;28;20037;-74
2023/04/20 03:11:56;;;;;;;56.88;33.58;;;6.30;99.90;;;;;;5026933;28;20045;-74
2023/04/20 03:14:47;;;;;;;50.15;30.73;;;6.30;99.90;;;;;;5013934;28;20042;-73
2023/04/20 03:17:15;;;;;;;43.22;26.27;;;6.30;99.90;;;;;;5026266;28;20061;-75
2023/04/20 03:19:42;;;;;;;45.78;24.38;;;6.30;99.90;;;;;;5028658;28;20046;-74
2023/04/20 03:22:11;;;;;;;40.13;23.65;;;6.20;99.90;;;;;;5034809;28;20045;-76
2023/04/20 03:24:39;;;;;;;32.45;21.48;;;6.20;99.90;;;;;;5026395;28;20072;-73
2023/04/20 03:27:27;;;;;;;31.98;20.13;;;6.20;99.90;;;;;;5027609;28;20041;-74
2023/04/20 03:30:05;;;;;;;33.95;18.92;;;6.20;99.90;;;;;;5025987;28;20111;-75
2023/04/20 03:32:34;;;;;;;35.55;22.02;;;6.20;99.90;;;;;;5025379;28;20038;-74
2023/04/20 03:35:01;;;;;;;45.70;23.95;;;6.20;99.90;;;;;;5028433;28;20129;-75
2023/04/20 03:37:31;;;;;;;45.78;23.23;;;6.20;99.90;;;;;;5025147;28;20048;-75
2023/04/20 03:39:58;;;;;;;39.25;24.92;;;6.20;99.90;;;;;;5027559;28;20046;-74
2023/04/20 03:42:25;;;;;;;49.95;26.80;;;6.10;99.90;;;;;;5026050;28;20045;-74
2023/04/20 03:44:55;;;;;;;55.15;30.85;;;6.10;99.90;;;;;;5025537;28;20068;-74
2023/04/20 03:47:22;;;;;;;59.83;32.33;;;6.00;99.90;;;;;;5025857;28;20053;-74
2023/04/20 03:49:51;;;;;;;66.97;33.38;;;6.10;99.90;;;;;;5026809;28;20049;-75
2023/04/20 03:52:18;;;;;;;64.43;32.75;;;6.10;99.90;;;;;;5024212;28;20100;-75
2023/04/20 03:54:47;;;;;;;66.93;30.23;;;6.00;99.90;;;;;;5027543;28;20049;-75
2023/04/20 03:57:16;;;;;;;70.45;29.27;;;6.00;99.90;;;;;;5027212;28;20033;-76
2023/04/20 03:59:44;;;;;;;48.28;27.80;;;5.90;99.90;;;;;;5026135;28;20125;-75
2023/04/20 04:02:17;;;;;;;45.53;27.27;;;5.90;99.90;;;;;;5038139;28;20041;-76
2023/04/20 04:04:46;;;;;;;45.92;26.92;;;5.90;99.90;;;;;;5049362;28;20101;-75
2023/04/20 04:07:14;;;;;;;53.05;23.67;;;5.90;99.90;;;;;;5044697;28;20457;-74
2023/04/20 04:09:43;;;;;;;46.45;25.45;;;6.00;99.90;;;;;;5032006;28;20037;-74
2023/04/20 04:12:14;;;;;;;42.85;27.15;;;5.90;99.90;;;;;;5031222;28;20053;-74
2023/04/20 04:14:41;;;;;;;45.08;26.17;;;5.90;99.90;;;;;;5032822;28;20049;-74
2023/04/20 04:17:10;;;;;;;49.55;28.10;;;5.90;99.90;;;;;;5031246;28;20095;-75
2023/04/20 04:19:42;;;;;;;45.72;27.42;;;6.00;99.90;;;;;;5030633;28;20042;-75
2023/04/20 04:22:09;;;;;;;43.05;28.10;;;6.00;99.90;;;;;;5028490;28;20513;-75
2023/04/20 04:24:44;;;;;;;49.58;27.48;;;5.90;99.90;;;;;;5028832;28;20069;-74
2023/04/20 04:27:14;;;;;;;53.22;30.20;;;6.00;99.90;;;;;;5030118;28;20041;-75
2023/04/20 04:29:50;;;;;;;46.00;28.45;;;6.10;99.90;;;;;;5028919;28;20041;-75
2023/04/20 04:32:20;;;;;;;53.88;29.17;;;6.20;99.90;;;;;;5028683;28;20049;-74
2023/04/20 04:34:49;;;;;;;40.70;22.42;;;6.40;99.90;;;;;;5029935;28;20095;-76
2023/04/20 04:37:17;;;;;;;40.50;23.13;;;6.40;99.90;;;;;;5029777;28;20049;-75
2023/04/20 04:39:50;;;;;;;72.68;40.75;;;6.40;99.90;;;;;;5028103;28;20042;-75
2023/04/20 04:42:26;;;;;;;;;;;6.40;99.90;;;;;;5029645;28;20064;-76
2023/04/20 04:44:55;;;;;;;43.80;27.83;;;6.50;99.90;;;;;;5029104;28;19925;-74
2023/04/20 04:47:29;;;;;;;51.03;29.35;;;6.50;99.90;;;;;;5029223;28;20050;-74
2023/04/20 04:49:59;;;;;;;43.88;26.85;;;6.60;99.90;;;;;;5031094;28;20045;-75
2023/04/20 04:52:27;;;;;;;45.85;25.02;;;6.70;99.90;;;;;;5028748;28;20119;-75
2023/04/20 04:54:54;;;;;;;37.50;23.88;;;6.70;99.90;;;;;;5031127;28;20053;-76
2023/04/20 04:57:22;;;;;;;30.55;20.90;;;6.70;99.90;;;;;;5029951;28;20053;-75
2023/04/20 04:59:51;;;;;;;28.63;19.08;;;6.80;99.90;;;;;;5029441;28;20412;-74
2023/04/20 05:02:18;;;;;;;31.30;20.45;;;6.90;99.90;;;;;;5029806;28;20508;-75
2023/04/20 05:04:46;;;;;;;32.20;20.55;;;7.00;99.90;;;;;;5032585;28;20037;-76
2023/04/20 05:07:14;;;;;;;37.92;23.45;;;7.00;99.90;;;;;;5028394;28;20041;-74
2023/04/20 05:09:41;;;;;;;44.60;27.55;;;7.10;99.90;;;;;;5029274;28;20038;-74
2023/04/20 05:12:10;;;;;;;51.97;28.90;;;7.10;99.90;;;;;;5029376;28;20073;-74
2023/04/20 05:14:38;;;;;;;60.65;32.58;;;7.10;99.90;;;;;;5029638;28;20069;-74
2023/04/20 05:17:06;;;;;;;60.80;33.45;;;7.10;99.90;;;;;;5045149;28;20049;-73
2023/04/20 05:19:34;;;;;;;74.78;32.60;;;7.20;99.90;;;;;;5049215;28;20056;-75
2023/04/20 05:22:01;;;;;;;65.03;35.67;;;7.30;99.90;;;;;;5048863;28;20131;-75
2023/04/20 05:24:29;;;;;;;80.90;40.35;;;7.20;99.90;;;;;;5050034;28;20071;-75
2023/04/20 05:26:57;;;;;;;74.45;39.45;;;7.30;99.90;;;;;;5049740;28;20044;-74
2023/04/20 05:29:25;;;;;;;64.88;35.85;;;7.40;99.90;;;;;;5048492;28;20051;-76
2023/04/20 05:31:52;;;;;;;67.93;35.08;;;7.50;99.90;;;;;;5049222;28;20041;-75
2023/04/20 05:34:21;;;;;;;87.15;37.28;;;7.70;99.90;;;;;;5047794;28;20045;-76
2023/04/20 05:36:49;;;;;;;95.22;42.20;;;7.70;99.90;;;;;;5049428;28;20548;-75
2023/04/20 05:39:16;;;;;;;71.80;39.10;;;7.80;99.90;;;;;;5049321;28;20069;-76
2023/04/20 05:41:44;;;;;;;68.20;38.60;;;8.10;99.90;;;;;;5048538;28;20060;-75
2023/04/20 05:44:12;;;;;;;68.75;39.00;;;8.30;99.90;;;;;;5048822;28;20061;-76
2023/04/20 05:46:39;;;;;;;83.07;47.67;;;8.40;99.90;;;;;;5048962;28;20052;-75
2023/04/20 05:49:06;;;;;;;69.47;40.15;;;8.50;99.90;;;;;;5049085;28;20077;-74
2023/04/20 05:51:35;;;;;;;65.22;38.28;;;8.60;99.90;;;;;;5048059;28;20037;-74
2023/04/20 05:54:04;;;;;;;62.35;35.35;;;8.80;99.90;;;;;;5049075;28;20200;-75
2023/04/20 05:56:32;;;;;;;59.72;33.42;;;8.90;99.90;;;;;;5048607;28;20079;-75
2023/04/20 05:58:59;;;;;;;63.75;36.17;;;8.70;99.90;;;;;;5051365;28;20049;-75
2023/04/20 06:01:27;;;;;;;60.63;34.33;;;9.00;99.90;;;;;;5049773;28;20044;-74
2023/04/20 06:03:55;;;;;;;49.33;31.60;;;9.20;99.90;;;;;;5048437;28;20049;-75
2023/04/20 06:06:23;;;;;;;51.60;31.33;;;9.60;99.90;;;;;;5047612;28;20049;-74
2023/04/20 06:08:56;;;;;;;53.03;34.40;;;9.90;99.90;;;;;;5030758;28;20040;-75
2023/04/20 06:11:24;;;;;;;56.80;32.70;;;10.20;99.90;;;;;;5048863;28;20033;-76
2023/04/20 06:13:53;;;;;;;53.30;33.15;;;10.30;99.90;;;;;;5050093;28;20166;-74
2023/04/20 06:16:20;;;;;;;53.25;34.85;;;10.50;99.90;;;;;;5030777;28;20088;-75
2023/04/20 06:18:48;;;;;;;54.72;33.67;;;10.60;99.90;;;;;;5030039;28;20041;-74
2023/04/20 06:21:16;;;;;;;60.20;34.63;;;10.80;99.90;;;;;;5029899;28;20071;-76
2023/04/20 06:23:44;;;;;;;48.22;30.58;;;10.90;99.90;;;;;;5048891;28;20044;-75
2023/04/20 06:26:13;;;;;;;49.92;33.03;;;11.00;99.90;;;;;;5049187;28;20394;-76
2023/04/20 06:28:40;;;;;;;52.92;31.67;;;11.00;99.90;;;;;;5048127;28;20049;-74
2023/04/20 06:31:08;;;;;;;49.83;29.25;;;10.90;99.90;;;;;;5045904;28;20037;-74
2023/04/20 06:33:37;;;;;;;45.33;28.65;;;11.00;99.90;;;;;;5047985;28;20044;-74
2023/04/20 06:36:07;;;;;;;41.40;27.05;;;10.90;99.90;;;;;;5049039;28;20041;-74
2023/04/20 06:38:34;;;;;;;37.42;25.58;;;11.30;99.90;;;;;;5049197;28;20055;-75
2023/04/20 06:41:02;;;;;;;47.42;25.80;;;11.70;99.90;;;;;;5054938;28;20036;-74
2023/04/20 06:43:31;;;;;;;35.90;24.92;;;12.00;99.90;;;;;;5057688;28;20045;-74
2023/04/20 06:45:58;;;;;;;41.10;27.92;;;12.20;99.90;;;;;;5047705;28;20058;-74
2023/04/20 06:48:26;;;;;;;34.92;25.08;;;12.20;99.90;;;;;;5048411;28;20049;-75
2023/04/20 06:50:54;;;;;;;36.47;26.83;;;12.30;99.90;;;;;;5047419;28;20523;-74
2023/04/20 06:53:22;;;;;;;37.65;26.05;;;12.70;99.90;;;;;;5048696;28;20049;-75
2023/04/20 06:55:49;;;;;;;40.63;26.20;;;13.20;99.90;;;;;;5048443;28;20037;-73
2023/04/20 06:58:17;;;;;;;31.35;21.70;;;13.60;99.90;;;;;;5048810;28;20086;-75
2023/04/20 07:00:46;;;;;;;31.15;21.88;;;13.90;99.90;;;;;;5048193;28;20041;-75
2023/04/20 07:03:17;;;;;;;29.13;18.73;;;14.20;99.90;;;;;;5048815;28;20131;-74
2023/04/20 07:05:46;;;;;;;24.30;16.80;;;14.50;99.90;;;;;;5049024;28;20068;-74
2023/04/20 07:08:14;;;;;;;26.13;18.33;;;14.70;99.90;;;;;;5050533;28;20037;-75
2023/04/20 07:10:43;;;;;;;29.50;20.33;;;14.60;99.90;;;;;;5048402;28;20043;-75
2023/04/20 07:13:10;;;;;;;27.88;20.70;;;14.40;99.90;;;;;;5048650;28;20045;-74
2023/04/20 07:15:38;;;;;;;26.63;20.15;;;14.40;99.90;;;;;;5065265;28;20065;-74
2023/04/20 07:18:06;;;;;;;29.70;21.80;;;14.20;99.90;;;;;;5069740;28;20060;-76
2023/04/20 07:20:34;;;;;;;26.83;21.05;;;14.20;99.90;;;;;;5053354;28;20071;-75
2023/04/20 07:23:02;;;;;;;25.33;20.73;;;14.50;99.90;;;;;;5050704;28;20033;-74
2023/04/20 07:25:31;;;;;;;35.72;24.38;;;14.90;99.90;;;;;;5047964;28;20075;-73
2023/04/20 07:27:59;;;;;;;26.70;19.33;;;15.30;99.90;;;;;;5048265;28;20587;-75
2023/04/20 07:30:26;;;;;;;24.95;19.23;;;15.50;99.90;;;;;;5029418;28;20049;-76
2023/04/20 07:32:53;;;;;;;26.88;20.83;;;15.70;99.90;;;;;;5047449;28;20049;-74
2023/04/20 07:35:23;;;;;;;29.05;18.27;;;15.90;99.90;;;;;;5029895;28;20053;-75
2023/04/20 07:37:50;;;;;;;28.20;19.00;;;16.10;99.90;;;;;;5048508;28;20052;-74
2023/04/20 07:40:18;;;;;;;27.98;17.90;;;16.20;99.90;;;;;;5047574;28;20179;-75
2023/04/20 07:42:45;;;;;;;23.20;17.73;;;16.40;99.90;;;;;;5047989;28;20127;-73
2023/04/20 07:45:13;;;;;;;27.63;20.42;;;16.30;99.90;;;;;;5048404;28;20505;-73
2023/04/20 07:47:42;;;;;;;26.15;18.50;;;16.30;99.90;;;;;;5051168;28;20690;-74
2023/04/20 07:50:10;;;;;;;29.65;20.10;;;16.50;99.90;;;;;;5052041;28;20120;-74
2023/04/20 07:52:39;;;;;;;29.67;20.02;;;16.80;99.90;;;;;;5051076;28;20048;-74
2023/04/20 07:55:10;;;;;;;27.65;18.65;;;17.00;99.90;;;;;;5051320;28;20045;-73
2023/04/20 07:57:38;;;;;;;27.77;18.52;;;17.30;99.90;;;;;;5051093;28;20140;-74
2023/04/20 08:00:08;;;;;;;25.30;19.40;;;17.30;99.90;;;;;;5032499;28;20033;-73
2023/04/20 08:02:40;;;;;;;28.75;19.25;;;17.30;99.90;;;;;;5051784;28;20396;-76
2023/04/20 08:05:08;;;;;;;31.90;22.85;;;17.40;99.90;;;;;;5033945;28;20456;-75
2023/04/20 08:07:36;;;;;;;32.35;22.13;;;17.60;99.90;;;;;;5031993;28;20053;-74
2023/04/20 08:10:06;;;;;;;25.58;18.92;;;17.70;99.90;;;;;;5051287;28;20047;-74
2023/04/20 08:12:33;;;;;;;25.88;18.20;;;17.50;98.10;;;;;;5050621;28;20045;-73
2023/04/20 08:15:04;;;;;;;23.48;16.58;;;17.50;98.10;;;;;;5051290;28;20041;-73
2023/04/20 08:17:31;;;;;;;24.05;17.25;;;17.30;99.90;;;;;;5051421;28;20059;-74
2023/04/20 08:19:59;;;;;;;24.80;17.10;;;17.20;99.90;;;;;;5051844;28;20047;-75
2023/04/20 08:22:28;;;;;;;23.92;17.73;;;17.40;99.90;;;;;;5050928;28;20036;-74
2023/04/20 08:24:56;;;;;;;21.05;16.30;;;17.50;98.10;;;;;;5050369;28;20048;-75
2023/04/20 08:27:28;;;;;;;22.55;15.93;;;17.50;98.70;;;;;;5050735;28;20041;-75
2023/04/20 08:29:55;;;;;;;24.08;16.98;;;17.50;97.40;;;;;;5050662;28;20087;-74
2023/04/20 08:32:25;;;;;;;21.35;16.35;;;17.80;95.70;;;;;;5032539;28;20056;-74
2023/04/20 08:34:53;;;;;;;20.30;16.85;;;17.90;94.70;;;;;;5034096;28;20671;-74
2023/04/20 08:37:20;;;;;;;26.38;18.23;;;18.10;93.20;;;;;;5051805;28;20037;-75
2023/04/20 08:39:47;;;;;;;21.25;16.08;;;17.90;92.30;;;;;;5051834;28;20041;-74
2023/04/20 08:42:15;;;;;;;21.05;15.25;;;17.70;92.70;;;;;;5051952;28;20091;-75
2023/04/20 08:44:44;;;;;;;18.60;15.02;;;17.80;92.10;;;;;;5057069;28;20098;-74
2023/04/20 08:47:12;;;;;;;20.90;15.57;;;18.20;91.40;;;;;;5063032;28;20136;-76
2023/04/20 08:49:40;;;;;;;18.17;13.90;;;18.40;90.90;;;;;;5060246;28;20105;-75
2023/04/20 08:52:09;;;;;;;18.05;12.95;;;18.90;88.10;;;;;;5062618;28;20041;-74
2023/04/20 08:54:38;;;;;;;17.02;12.73;;;18.80;84.30;;;;;;5056970;28;20044;-74
2023/04/20 08:57:06;;;;;;;17.13;13.73;;;19.10;82.70;;;;;;5051230;28;20033;-74
2023/04/20 08:59:36;;;;;;;22.38;14.00;;;19.70;80.50;;;;;;5051428;28;20041;-75
2023/04/20 09:02:12;;;;;;;20.55;14.40;;;19.60;81.20;;;;;;5054899;28;20112;-74
2023/04/20 09:04:40;;;;;;;21.38;15.27;;;19.10;80.90;;;;;;5053633;28;20481;-74
2023/04/20 09:07:17;;;;;;;21.27;16.27;;;18.80;82.20;;;;;;5050435;28;20048;-73
2023/04/20 09:09:55;;;;;;;21.65;15.20;;;18.30;84.00;;;;;;5050711;28;20041;-73
2023/04/20 09:12:23;;;;;;;17.65;13.50;;;18.20;85.60;;;;;;5049588;28;20057;-73
2023/04/20 09:14:52;;;;;;;20.10;14.45;;;18.10;85.20;;;;;;5052832;28;20076;-73
2023/04/20 09:17:32;;;;;;;18.23;15.38;;;18.10;86.10;;;;;;5053551;28;20049;-73
2023/04/20 09:20:00;;;;;;;22.90;17.60;;;17.90;86.60;;;;;;5056205;28;20044;-74
2023/04/20 09:22:31;;;;;;;23.75;16.83;;;17.40;90.10;;;;;;5057658;28;20102;-74
2023/04/20 09:24:59;;;;;;;19.52;15.90;;;17.10;97.40;;;;;;5050268;28;20044;-74
2023/04/20 09:27:26;;;;;;;19.40;15.00;;;17.20;99.90;;;;;;5051437;28;20041;-73
2023/04/20 09:29:58;;;;;;;20.70;14.60;;;17.20;99.90;;;;;;5052167;28;20041;-74
2023/04/20 09:32:28;;;;;;;18.13;14.35;;;17.20;99.90;;;;;;5051039;28;20420;-73
2023/04/20 09:34:56;;;;;;;19.80;14.57;;;17.40;99.90;;;;;;5048480;28;20171;-74
2023/04/20 09:37:24;;;;;;;20.23;14.05;;;17.40;99.90;;;;;;5050659;28;20037;-73
2023/04/20 09:39:53;;;;;;;19.55;13.43;;;17.50;99.90;;;;;;5050337;28;20060;-73
2023/04/20 09:42:21;;;;;;;19.50;14.23;;;17.60;97.90;;;;;;5049407;28;20037;-72
2023/04/20 09:44:49;;;;;;;19.85;14.82;;;17.70;98.90;;;;;;5049638;28;20044;-74
2023/04/20 09:47:17;;;;;;;19.33;14.60;;;17.90;97.80;;;;;;5049681;28;21421;-73
2023/04/20 09:49:47;;;;;;;23.23;15.20;;;17.90;96.20;;;;;;5050447;28;20033;-73
2023/04/20 09:52:17;;;;;;;18.77;13.93;;;17.90;97.20;;;;;;5033456;28;20044;-73
2023/04/20 09:54:45;;;;;;;19.73;14.98;;;18.00;94.80;;;;;;5030355;28;20049;-72
2023/04/20 09:57:14;;;;;;;19.95;14.52;;;18.20;93.70;;;;;;5029887;28;20485;-73
2023/04/20 09:59:43;;;;;;;14.40;11.60;;;18.40;92.10;;;;;;5030421;28;20217;-72
2023/04/20 10:02:12;;;;;;;17.08;11.52;;;18.50;90.10;;;;;;5011430;28;20046;-72
2023/04/20 10:04:52;;;;;;;15.50;11.38;;;18.60;87.60;;;;;;5013794;28;20043;-73
2023/04/20 10:07:25;;;;;;;13.77;11.32;;;18.50;86.40;;;;;;5029156;28;20037;-73
2023/04/20 10:10:05;;;;;;;15.85;11.85;;;18.40;86.10;;;;;;5029603;28;20481;-74
2023/04/20 10:12:35;;;;;;;24.20;12.10;;;18.20;85.60;;;;;;5030995;28;20060;-73
2023/04/20 10:15:03;;;;;;;16.23;12.23;;;18.30;84.70;;;;;;5028268;28;20083;-74
2023/04/20 10:17:31;;;;;;;17.52;13.02;;;18.40;83.90;;;;;;5031552;28;20059;-74
2023/04/20 10:20:00;;;;;;;16.50;12.52;;;18.70;83.30;;;;;;5034301;28;20344;-74
2023/04/20 10:22:32;;;;;;;18.92;12.07;;;18.90;80.60;;;;;;5029111;28;20524;-74
2023/04/20 10:25:01;;;;;;;16.38;12.77;;;19.10;79.30;;;;;;5029295;28;20041;-74
2023/04/20 10:27:30;;;;;;;16.83;11.60;;;19.10;78.30;;;;;;5029240;28;20084;-73
2023/04/20 10:30:09;;;;;;;14.00;10.88;;;19.30;76.10;;;;;;5028733;28;20088;-73
2023/04/20 10:32:37;;;;;;;12.80;10.00;;;19.30;74.30;;;;;;5031652;28;20099;-74
2023/04/20 10:35:08;;;;;;;13.40;9.80;;;19.30;74.50;;;;;;5030443;28;20124;-73
2023/04/20 10:37:47;;;;;;;14.80;11.88;;;19.00;73.80;;;;;;5026831;28;20043;-74
2023/04/20 10:40:14;;;;;;;11.38;10.23;;;18.80;74.00;;;;;;5028205;28;20041;-74
2023/04/20 10:42:45;;;;;;;13.73;11.13;;;19.10;72.70;;;;;;5029096;28;20128;-74
2023/04/20 10:45:13;;;;;;;12.75;11.25;;;18.70;73.80;;;;;;5027796;28;20037;-73
2023/04/20 10:47:41;;;;;;;16.45;12.05;;;18.70;75.20;;;;;;5027462;28;20559;-73
2023/04/20 10:50:12;;;;;;;16.25;12.50;;;18.80;74.80;;;;;;5027767;28;20065;-73
2023/04/20 10:52:41;;;;;;;12.23;9.77;;;18.90;74.20;;;;;;5026762;28;20073;-74
2023/04/20 10:55:19;;;;;;;13.95;10.65;;;18.80;72.70;;;;;;5021768;28;20056;-73
2023/04/20 10:57:47;;;;;;;12.93;9.70;;;18.60;73.60;;;;;;5014995;28;20096;-73
2023/04/20 11:00:17;;;;;;;9.65;8.40;;;18.50;73.10;;;;;;5039328;28;20045;-74
2023/04/20 11:02:49;;;;;;;13.32;9.38;;;18.30;72.00;;;;;;5039005;28;20049;-73
2023/04/20 11:05:19;;;;;;;9.48;8.48;;;18.20;71.40;;;;;;5032614;28;20107;-73
2023/04/20 11:07:53;;;;;;;11.60;9.00;;;18.20;70.30;;;;;;5030015;28;20080;-76
2023/04/20 11:10:22;;;;;;;12.68;9.00;;;18.40;69.70;;;;;;5032112;28;20690;-73
2023/04/20 11:12:49;;;;;;;12.23;9.60;;;18.40;69.80;;;;;;5005931;28;20061;-73
2023/04/20 11:15:17;;;;;;;13.05;10.75;;;18.60;69.50;;;;;;5029206;28;20041;-74
2023/04/20 11:17:45;;;;;;;19.25;17.15;;;18.70;70.30;;;;;;5028127;28;20132;-74
2023/04/20 11:20:15;;;;;;;13.23;9.00;;;18.80;70.90;;;;;;5030271;28;20044;-73
2023/04/20 11:22:56;;;;;;;14.55;10.32;;;18.70;69.00;;;;;;5030942;28;20034;-74
2023/04/20 11:25:24;;;;;;;16.23;10.63;;;18.80;68.50;;;;;;5031731;28;20045;-74
2023/04/20 11:27:51;;;;;;;14.88;9.02;;;19.00;67.70;;;;;;5031300;28;20140;-73
2023/04/20 11:30:19;;;;;;;12.95;11.32;;;19.10;67.80;;;;;;5030470;28;20037;-73
2023/04/20 11:32:55;;;;;;;14.95;11.15;;;19.10;68.90;;;;;;5029904;28;20041;-73
2023/04/20 11:35:22;;;;;;;15.10;10.48;;;19.40;67.60;;;;;;5029845;28;20041;-73
2023/04/20 11:37:52;;;;;;;11.68;9.82;;;19.20;66.80;;;;;;5031231;28;20037;-73
2023/04/20 11:40:20;;;;;;;13.00;9.70;;;19.30;66.50;;;;;;5013709;28;20037;-73
2023/04/20 11:42:48;;;;;;;13.38;9.50;;;19.40;65.90;;;;;;5035100;28;20042;-75
2023/04/20 11:45:16;;;;;;;12.63;9.55;;;19.50;65.30;;;;;;5032530;28;20041;-72
2023/04/20 11:47:46;;;;;;;13.05;10.13;;;19.70;64.70;;;;;;5035789;28;20062;-73
2023/04/20 11:50:13;;;;;;;11.95;9.30;;;20.10;64.20;;;;;;5039767;28;20041;-73
2023/04/20 11:52:41;;;;;;;11.23;9.20;;;20.20;63.40;;;;;;5030917;28;20397;-73
2023/04/20 11:55:10;;;;;;;12.23;9.40;;;20.50;62.80;;;;;;5032619;28;20075;-72
2023/04/20 11:57:38;;;;;;;11.85;9.48;;;20.40;63.70;;;;;;5018439;28;20049;-73
2023/04/20 12:00:07;;;;;;;13.35;9.35;;;20.10;65.00;;;;;;5015906;28;20037;-73
2023/04/20 12:02:41;;;;;;;16.92;13.13;;;20.10;65.20;;;;;;5040714;28;20069;-73
2023/04/20 12:05:10;;;;;;;12.32;9.07;;;20.20;65.50;;;;;;5033485;28;20047;-76
2023/04/20 12:07:37;;;;;;;11.23;9.25;;;20.40;64.20;;;;;;5032349;28;20050;-72
2023/04/20 12:10:06;;;;;;;10.30;9.18;;;20.60;62.30;;;;;;5030676;28;20049;-74
2023/04/20 12:12:35;;;;;;;10.38;9.27;;;20.60;62.70;;;;;;5031688;28;20453;-72
2023/04/20 12:15:03;;;;;;;13.45;9.02;;;20.80;62.10;;;;;;5013274;28;20051;-72
2023/04/20 12:17:31;;;;;;;11.43;8.98;;;21.00;61.40;;;;;;5030928;28;20118;-73
2023/04/20 12:19:59;;;;;;;13.10;10.30;;;21.00;62.50;;;;;;5030665;28;20045;-78
2023/04/20 12:22:26;;;;;;;11.70;8.13;;;21.00;61.40;;;;;;5028219;28;20046;-73
2023/04/20 12:24:54;;;;;;;13.73;8.98;;;20.90;58.30;;;;;;5028017;28;20037;-73
2023/04/20 12:27:21;;;;;;;12.95;7.90;;;20.90;57.80;;;;;;5030410;28;20075;-74
2023/04/20 12:29:50;;;;;;;10.80;8.82;;;20.70;57.40;;;;;;5032458;28;20118;-74
2023/04/20 12:32:18;;;;;;;9.68;7.68;;;20.60;58.10;;;;;;5030558;28;20033;-74
2023/04/20 12:34:45;;;;;;;9.60;7.47;;;20.70;60.10;;;;;;5050980;28;20079;-73
2023/04/20 12:37:13;;;;;;;9.27;7.68;;;20.60;58.30;;;;;;5033461;28;20087;-74
2023/04/20 12:39:41;;;;;;;15.55;8.55;;;20.30;58.30;;;;;;5030596;28;20050;-73
2023/04/20 12:42:09;;;;;;;10.40;8.07;;;20.00;58.90;;;;;;5029121;28;20037;-73